Time;durP1;ratioP1;P1;durP2;ratioP2;P2;SDS_P1;SDS_P2;PMS_P1;PMS_P2;Temp;Humidity;BMP_temperature;BMP_pressure;BME280_temperature;BME280_humidity;BME280_pressure;Samples;Min_cycle;Max_cycle;Signal;HPM_P1;HPM_P2
2024/03/05 00:01:36;;;;;;;6.35;5.68;;;;;;;8.00;83.49;100808.09;4878682;29;20218;-65
2024/03/05 00:04:07;;;;;;;9.13;4.35;;;;;;;7.96;83.17;100801.41;4878951;29;20195;-66
2024/03/05 00:06:37;;;;;;;12.20;6.63;;;;;;;7.97;83.66;100803.09;4878696;29;20281;-70
2024/03/05 00:09:06;;;;;;;6.85;5.72;;;;;;;7.82;82.76;100811.19;4878279;29;20222;-66
2024/03/05 00:11:35;;;;;;;8.40;6.70;;;;;;;7.71;83.18;100800.03;4878356;29;20186;-65
2024/03/05 00:14:05;;;;;;;7.95;4.65;;;;;;;7.72;83.02;100805.25;4878730;29;20213;-66
2024/03/05 00:16:34;;;;;;;9.80;5.50;;;;;;;7.71;82.32;100810.81;4871876;29;20199;-65
2024/03/05 00:19:03;;;;;;;8.52;4.63;;;;;;;7.61;81.69;100812.94;4878427;29;20305;-67
2024/03/05 00:21:33;;;;;;;5.00;4.47;;;;;;;7.60;81.14;100809.41;4870545;29;20219;-64
2024/03/05 00:24:02;;;;;;;9.27;4.65;;;;;;;7.50;80.68;100808.03;4875807;29;20212;-65
2024/03/05 00:26:31;;;;;;;9.55;5.88;;;;;;;7.48;80.69;100818.97;4875425;29;20247;-64
2024/03/05 00:29:02;;;;;;;5.63;4.90;;;;;;;7.51;80.37;100817.75;4878215;29;20611;-65
2024/03/05 00:31:32;;;;;;;3.42;2.92;;;;;;;7.49;80.77;100819.81;4874391;29;20267;-66
2024/03/05 00:34:04;;;;;;;3.72;2.65;;;;;;;7.51;79.92;100823.13;4872790;29;20587;-65
2024/03/05 00:36:35;;;;;;;4.53;3.95;;;;;;;7.50;79.56;100822.31;4878817;29;20612;-66
2024/03/05 00:39:04;;;;;;;3.47;2.70;;;;;;;7.41;80.06;100826.94;4881925;29;20250;-66
2024/03/05 00:41:33;;;;;;;10.15;5.82;;;;;;;7.36;80.76;100821.25;4880870;29;20246;-66
2024/03/05 00:44:02;;;;;;;4.90;4.55;;;;;;;7.37;80.68;100827.47;4881707;29;20233;-65
2024/03/05 00:46:31;;;;;;;9.82;4.95;;;;;;;7.38;80.19;100835.38;4881756;29;20251;-64
2024/03/05 00:49:00;;;;;;;7.68;4.57;;;;;;;7.26;80.10;100831.44;4881911;29;20595;-63
2024/03/05 00:51:29;;;;;;;7.30;4.78;;;;;;;7.30;80.45;100824.69;4877149;29;20281;-66
2024/03/05 00:53:59;;;;;;;7.80;5.10;;;;;;;7.35;79.72;100833.06;4874989;29;20202;-66
2024/03/05 00:56:29;;;;;;;7.25;4.65;;;;;;;7.36;79.41;100832.03;4880950;29;20563;-67
2024/03/05 00:58:58;;;;;;;6.07;4.35;;;;;;;7.29;79.66;100830.25;4877270;29;20326;-66
2024/03/05 01:01:27;;;;;;;5.65;4.68;;;;;;;7.15;80.18;100836.44;4881873;29;20205;-66
2024/03/05 01:03:56;;;;;;;5.03;4.57;;;;;;;7.11;80.70;100838.66;4881552;29;20679;-67
2024/03/05 01:06:26;;;;;;;6.70;4.18;;;;;;;7.12;80.78;100834.94;4881574;29;20191;-66
2024/03/05 01:08:55;;;;;;;5.88;3.47;;;;;;;7.12;80.51;100832.25;4881230;29;20305;-64
2024/03/05 01:11:26;;;;;;;5.85;3.72;;;;;;;7.11;80.38;100832.44;4878865;29;20203;-66
2024/03/05 01:13:55;;;;;;;3.72;3.20;;;;;;;7.13;80.18;100831.22;4881035;29;20238;-67
2024/03/05 01:16:26;;;;;;;2.85;2.55;;;;;;;7.15;79.93;100839.97;4876729;29;20243;-65
2024/03/05 01:18:55;;;;;;;6.50;3.58;;;;;;;7.13;80.35;100841.16;4879554;29;20234;-65
2024/03/05 01:21:24;;;;;;;2.70;2.50;;;;;;;7.04;81.00;100845.78;4880460;29;20186;-65
2024/03/05 01:23:53;;;;;;;3.90;2.20;;;;;;;6.98;81.47;100833.88;4876628;29;20211;-67
2024/03/05 01:26:22;;;;;;;5.05;4.07;;;;;;;6.92;81.49;100841.84;4880366;29;20209;-65
2024/03/05 01:28:53;;;;;;;3.65;3.00;;;;;;;6.93;80.79;100835.44;4881412;29;20309;-67
2024/03/05 01:31:22;;;;;;;8.35;5.47;;;;;;;6.89;80.74;100842.19;4868191;29;20210;-66
2024/03/05 01:33:51;;;;;;;5.60;4.43;;;;;;;6.85;80.46;100839.03;4881634;29;20262;-67
2024/03/05 01:36:20;;;;;;;5.25;4.53;;;;;;;6.88;80.72;100838.66;4879265;29;20237;-66
2024/03/05 01:38:49;;;;;;;6.47;5.03;;;;;;;6.86;80.66;100837.19;4881745;29;20578;-66
2024/03/05 01:41:18;;;;;;;9.32;6.00;;;;;;;6.84;81.26;100839.19;4876406;29;20305;-64
2024/03/05 01:43:47;;;;;;;4.78;3.35;;;;;;;6.70;81.39;100839.97;4880543;29;20259;-66
2024/03/05 01:46:18;;;;;;;3.85;3.40;;;;;;;6.66;81.50;100838.66;4879698;29;20191;-67
2024/03/05 01:48:48;;;;;;;4.80;3.70;;;;;;;6.58;82.37;100830.66;4880758;29;20226;-66
2024/03/05 01:51:19;;;;;;;6.97;4.65;;;;;;;6.46;82.79;100833.75;4880726;29;20195;-65
2024/03/05 01:53:48;;;;;;;7.25;4.40;;;;;;;6.44;82.83;100851.88;4880564;29;20247;-66
2024/03/05 01:56:18;;;;;;;3.95;3.55;;;;;;;6.44;83.55;100843.81;4880490;29;20190;-65
2024/03/05 01:58:48;;;;;;;6.97;4.43;;;;;;;6.43;83.38;100838.63;4880838;29;20227;-66
2024/03/05 02:01:18;;;;;;;8.45;4.43;;;;;;;6.41;84.00;100846.88;4876412;29;20194;-64
2024/03/05 02:03:47;;;;;;;8.40;5.05;;;;;;;6.45;83.92;100842.81;4880270;29;20211;-66
2024/03/05 02:06:17;;;;;;;6.15;4.35;;;;;;;6.38;83.82;100852.59;4878857;29;20553;-65
2024/03/05 02:08:49;;;;;;;4.20;2.72;;;;;;;6.30;84.24;100843.72;4873657;29;20221;-65
2024/03/05 02:11:20;;;;;;;3.08;2.38;;;;;;;6.22;84.99;100839.25;4872237;29;20697;-66
2024/03/05 02:13:49;;;;;;;5.15;3.92;;;;;;;6.30;84.90;100838.34;4878259;29;20226;-66
2024/03/05 02:16:19;;;;;;;4.82;3.38;;;;;;;6.21;85.22;100845.63;4876714;29;20204;-66
2024/03/05 02:18:48;;;;;;;10.73;5.15;;;;;;;6.22;85.52;100852.69;4876657;29;20278;-66
2024/03/05 02:21:22;;;;;;;4.78;4.20;;;;;;;6.12;86.12;100849.34;4875242;29;20211;-67
2024/03/05 02:23:51;;;;;;;4.60;3.67;;;;;;;6.09;86.31;100855.09;4872547;29;20210;-65
2024/03/05 02:26:20;;;;;;;6.38;5.85;;;;;;;6.05;86.58;100853.78;4878885;29;20215;-65
2024/03/05 02:28:50;;;;;;;9.25;3.42;;;;;;;5.99;86.72;100857.16;4879238;29;20262;-67
2024/03/05 02:31:20;;;;;;;5.97;4.57;;;;;;;5.89;87.82;100851.97;4877840;29;20243;-66
2024/03/05 02:33:50;;;;;;;13.57;4.63;;;;;;;5.90;88.00;100847.44;4879940;29;20256;-66
2024/03/05 02:36:19;;;;;;;6.57;3.85;;;;;;;5.73;88.89;100843.91;4879926;29;20202;-67
2024/03/05 02:38:50;;;;;;;9.32;6.22;;;;;;;5.71;89.51;100847.81;4875759;29;20215;-65
2024/03/05 02:41:20;;;;;;;11.73;5.57;;;;;;;5.53;90.89;100851.53;4875476;29;20202;-66
2024/03/05 02:43:50;;;;;;;9.38;4.35;;;;;;;5.48;91.36;100853.88;4879599;29;20266;-66
2024/03/05 02:46:19;;;;;;;8.82;4.20;;;;;;;5.41;92.01;100860.94;4879853;29;20230;-66
2024/03/05 02:48:54;;;;;;;6.00;4.40;;;;;;;5.33;92.68;100858.25;4878937;29;20228;-65
2024/03/05 02:51:24;;;;;;;2.22;1.95;;;;;;;5.29;93.30;100856.91;4876200;29;20202;-65
2024/03/05 02:53:54;;;;;;;6.70;3.40;;;;;;;5.22;93.99;100867.50;4878529;29;20199;-64
2024/03/05 02:56:25;;;;;;;14.57;5.72;;;;;;;5.21;94.46;100870.34;4878981;29;20206;-65
2024/03/05 02:58:54;;;;;;;3.72;3.15;;;;;;;5.13;95.18;100871.16;4875232;29;20219;-64
2024/03/05 03:01:24;;;;;;;5.75;5.13;;;;;;;5.17;95.48;100871.69;4874173;29;20194;-63
2024/03/05 03:03:53;;;;;;;5.47;3.60;;;;;;;5.20;95.59;100882.06;4877951;29;20224;-65
2024/03/05 03:06:22;;;;;;;6.20;4.00;;;;;;;5.16;96.00;100886.09;4873605;29;20251;-66
2024/03/05 03:08:53;;;;;;;3.92;3.65;;;;;;;5.07;96.61;100879.06;4874115;29;20223;-65
2024/03/05 03:11:22;;;;;;;10.40;5.28;;;;;;;4.96;97.27;100880.22;4873901;29;20199;-65
2024/03/05 03:13:51;;;;;;;6.38;3.00;;;;;;;4.89;98.34;100884.56;4873840;29;20202;-65
2024/03/05 03:16:20;;;;;;;4.28;2.15;;;;;;;4.84;98.39;100886.09;4877977;29;20247;-64
2024/03/05 03:18:49;;;;;;;3.85;2.38;;;;;;;4.85;98.86;100887.72;4876197;29;20226;-65
2024/03/05 03:21:18;;;;;;;5.00;4.03;;;;;;;4.85;99.02;100887.72;4876897;29;20198;-67
2024/03/05 03:23:47;;;;;;;5.68;4.65;;;;;;;4.80;99.37;100883.72;4878883;29;20242;-67
2024/03/05 03:26:17;;;;;;;5.53;4.03;;;;;;;4.86;99.12;100889.41;4878848;29;20201;-65
2024/03/05 03:28:46;;;;;;;5.80;5.20;;;;;;;4.78;99.56;100899.13;4874545;29;20234;-65
2024/03/05 03:31:16;;;;;;;3.95;2.95;;;;;;;4.84;99.61;100896.81;4877454;29;20206;-65
2024/03/05 03:33:44;;;;;;;6.10;4.57;;;;;;;4.85;99.54;100907.34;4878290;29;20229;-66
2024/03/05 03:36:24;;;;;;;4.97;4.45;;;;;;;4.87;99.03;100907.19;4878400;29;20202;-66
2024/03/05 03:38:53;;;;;;;6.65;3.80;;;;;;;4.77;99.69;100910.03;4878115;29;20309;-65
2024/03/05 03:41:24;;;;;;;11.32;3.70;;;;;;;4.67;100.00;100917.38;4878008;29;20265;-67
2024/03/05 03:43:53;;;;;;;6.03;5.43;;;;;;;4.70;100.00;100909.81;4878667;29;20214;-65
2024/03/05 03:46:22;;;;;;;5.63;3.15;;;;;;;4.61;100.00;100908.13;4878814;29;20197;-66
2024/03/05 03:48:50;;;;;;;3.95;3.60;;;;;;;4.56;100.00;100910.47;4879060;29;20233;-65
2024/03/05 03:51:19;;;;;;;5.65;3.80;;;;;;;4.57;100.00;100909.47;4877250;29;20194;-65
2024/03/05 03:53:48;;;;;;;9.02;4.47;;;;;;;4.58;100.00;100908.47;4878973;29;20454;-64
2024/03/05 03:56:17;;;;;;;3.75;3.00;;;;;;;4.59;100.00;100909.31;4878228;29;20197;-64
2024/03/05 03:58:47;;;;;;;9.00;4.65;;;;;;;4.54;100.00;100904.44;4879245;29;20230;-66
2024/03/05 04:01:16;;;;;;;5.40;4.47;;;;;;;4.59;100.00;100910.16;4879272;29;20195;-65
2024/03/05 04:03:45;;;;;;;2.50;2.33;;;;;;;4.59;100.00;100909.31;4877651;29;20736;-65
2024/03/05 04:06:14;;;;;;;4.85;3.33;;;;;;;4.62;100.00;100914.34;4876274;29;20198;-64
2024/03/05 04:08:43;;;;;;;5.55;4.95;;;;;;;4.64;99.66;100923.06;4881033;29;20727;-66
2024/03/05 04:11:12;;;;;;;8.07;4.95;;;;;;;4.55;100.00;100924.03;4879972;29;20233;-66
2024/03/05 04:13:43;;;;;;;5.47;3.28;;;;;;;4.53;100.00;100931.38;4881898;29;20213;-68
2024/03/05 04:16:13;;;;;;;9.82;6.03;;;;;;;4.54;100.00;100933.06;4881832;29;20575;-66
2024/03/05 04:18:45;;;;;;;4.10;3.28;;;;;;;4.44;100.00;100938.56;4878845;29;20298;-67
2024/03/05 04:21:14;;;;;;;6.05;2.35;;;;;;;4.46;100.00;100931.19;4877918;29;20507;-66
2024/03/05 04:23:43;;;;;;;8.27;5.20;;;;;;;4.61;100.00;100942.97;4877082;29;20228;-66
2024/03/05 04:26:14;;;;;;;2.83;2.25;;;;;;;4.50;100.00;100932.56;4880876;29;20202;-66
2024/03/05 04:28:48;;;;;;;3.88;3.58;;;;;;;4.44;100.00;100935.88;4874268;29;20232;-66
2024/03/05 04:31:20;;;;;;;5.05;3.58;;;;;;;4.41;100.00;100938.88;4881371;29;20673;-66
2024/03/05 04:33:49;;;;;;;3.60;2.70;;;;;;;4.31;100.00;100932.81;4881557;29;20197;-67
2024/03/05 04:36:18;;;;;;;3.05;2.75;;;;;;;4.28;100.00;100941.16;4881467;29;20208;-66
2024/03/05 04:38:46;;;;;;;3.22;2.38;;;;;;;4.28;100.00;100931.28;4882209;29;20234;-66
2024/03/05 04:41:15;;;;;;;5.63;3.03;;;;;;;4.24;100.00;100931.78;4882416;29;20232;-66
2024/03/05 04:43:44;;;;;;;4.43;2.47;;;;;;;4.16;100.00;100934.44;4882068;29;20210;-66
2024/03/05 04:46:13;;;;;;;3.95;3.42;;;;;;;4.14;100.00;100931.06;4878867;29;20305;-65
2024/03/05 04:48:43;;;;;;;3.42;3.10;;;;;;;4.04;100.00;100938.38;4879409;29;20305;-65
2024/03/05 04:51:13;;;;;;;4.13;2.55;;;;;;;4.03;100.00;100940.19;4881218;29;20204;-67
2024/03/05 04:53:42;;;;;;;4.65;2.40;;;;;;;4.03;100.00;100928.66;4881110;29;20194;-67
2024/03/05 04:56:12;;;;;;;7.53;3.80;;;;;;;3.97;100.00;100942.69;4880338;29;20737;-67
2024/03/05 04:58:41;;;;;;;6.78;4.10;;;;;;;3.86;100.00;100943.78;4880236;29;20224;-67
2024/03/05 05:01:10;;;;;;;2.20;1.88;;;;;;;3.80;100.00;100939.06;4878576;29;20206;-67
2024/03/05 05:03:39;;;;;;;5.30;2.65;;;;;;;3.70;100.00;100949.88;4878768;29;20556;-66
2024/03/05 05:06:10;;;;;;;5.75;3.65;;;;;;;3.62;100.00;100952.50;4878096;29;20206;-66
2024/03/05 05:08:39;;;;;;;4.15;3.95;;;;;;;3.53;100.00;100968.63;4875978;29;20218;-66
2024/03/05 05:11:08;;;;;;;5.90;5.30;;;;;;;3.58;100.00;100961.84;4879247;29;20193;-67
2024/03/05 05:13:37;;;;;;;4.45;2.55;;;;;;;3.48;100.00;100963.75;4880873;29;20194;-67
2024/03/05 05:16:08;;;;;;;2.95;2.58;;;;;;;3.39;100.00;100956.63;4880625;29;20193;-66
2024/03/05 05:18:38;;;;;;;3.33;3.08;;;;;;;3.32;100.00;100963.59;4879008;29;20281;-66
2024/03/05 05:21:08;;;;;;;5.20;2.20;;;;;;;3.34;100.00;100958.94;4877241;29;20196;-66
2024/03/05 05:23:38;;;;;;;5.15;2.28;;;;;;;3.26;100.00;100957.03;4879475;29;20200;-66
2024/03/05 05:26:08;;;;;;;5.57;4.90;;;;;;;3.28;100.00;100960.41;4879219;29;20217;-67
2024/03/05 05:28:37;;;;;;;3.25;1.95;;;;;;;3.20;100.00;100962.97;4877058;29;20227;-66
2024/03/05 05:31:08;;;;;;;9.23;3.50;;;;;;;3.22;100.00;100960.16;4877786;29;20224;-67
2024/03/05 05:33:38;;;;;;;4.82;2.95;;;;;;;3.12;100.00;100964.75;4875427;29;20292;-66
2024/03/05 05:36:10;;;;;;;6.00;3.08;;;;;;;3.07;100.00;100957.19;4877385;29;20197;-66
2024/03/05 05:38:39;;;;;;;5.13;4.63;;;;;;;3.04;100.00;100963.69;4880133;29;20237;-66
2024/03/05 05:41:08;;;;;;;4.03;3.53;;;;;;;3.00;100.00;100956.94;4880556;29;20672;-66
2024/03/05 05:43:37;;;;;;;5.57;3.90;;;;;;;3.00;100.00;100956.94;4880683;29;20200;-67
2024/03/05 05:46:12;;;;;;;3.67;2.28;;;;;;;2.96;100.00;100960.91;4879116;29;20229;-68
2024/03/05 05:48:42;;;;;;;2.65;2.42;;;;;;;2.96;100.00;100960.91;4880120;29;20212;-67
2024/03/05 05:51:13;;;;;;;6.60;3.90;;;;;;;3.08;100.00;100964.22;4877526;29;20203;-66
2024/03/05 05:53:44;;;;;;;2.70;2.50;;;;;;;3.03;100.00;100970.03;4873438;29;20210;-67
2024/03/05 05:56:14;;;;;;;7.25;2.70;;;;;;;2.95;100.00;100975.25;4878556;29;20203;-66
2024/03/05 05:58:43;;;;;;;4.18;3.85;;;;;;;2.91;100.00;100973.03;4877072;29;20252;-66
2024/03/05 06:01:13;;;;;;;2.53;2.33;;;;;;;2.97;100.00;100973.28;4879162;29;20694;-66
2024/03/05 06:03:44;;;;;;;2.33;2.13;;;;;;;2.96;100.00;100984.97;4869531;29;20654;-67
2024/03/05 06:06:19;;;;;;;5.82;4.50;;;;;;;2.99;100.00;100976.66;4880149;29;20616;-67
2024/03/05 06:08:49;;;;;;;2.63;2.15;;;;;;;2.91;100.00;100981.06;4870613;29;20287;-67
2024/03/05 06:11:18;;;;;;;7.95;2.75;;;;;;;2.90;100.00;100987.44;4877491;29;20196;-65
2024/03/05 06:13:47;;;;;;;3.03;1.90;;;;;;;2.92;100.00;100988.09;4879825;29;20204;-67
2024/03/05 06:16:16;;;;;;;2.25;1.60;;;;;;;2.86;100.00;100992.22;4878093;29;20187;-67
2024/03/05 06:18:45;;;;;;;6.35;3.22;;;;;;;2.90;100.00;100993.63;4878728;29;20214;-66
2024/03/05 06:21:14;;;;;;;2.05;1.95;;;;;;;2.95;100.00;100993.16;4877448;29;20621;-67
2024/03/05 06:23:45;;;;;;;2.88;2.63;;;;;;;2.92;100.00;100998.78;4875233;29;20675;-67
2024/03/05 06:26:14;;;;;;;5.57;3.13;;;;;;;2.94;100.00;100997.66;4880410;29;20211;-66
2024/03/05 06:28:44;;;;;;;2.92;2.72;;;;;;;2.95;100.00;100998.50;4879410;29;20216;-68
2024/03/05 06:31:12;;;;;;;3.67;2.22;;;;;;;2.99;100.00;101006.06;4879733;29;20695;-67
2024/03/05 06:33:41;;;;;;;8.05;4.93;;;;;;;3.14;100.00;101009.06;4881256;29;20623;-66
2024/03/05 06:36:12;;;;;;;11.85;2.65;;;;;;;2.98;100.00;101012.41;4879766;29;20191;-67
2024/03/05 06:38:42;;;;;;;7.43;5.18;;;;;;;3.02;100.00;101015.63;4880219;29;20591;-67
2024/03/05 06:41:13;;;;;;;6.00;3.78;;;;;;;3.07;100.00;101013.34;4876982;29;20195;-67
2024/03/05 06:43:42;;;;;;;5.93;2.65;;;;;;;3.06;100.00;101011.63;4876312;29;20208;-67
2024/03/05 06:46:13;;;;;;;2.55;2.35;;;;;;;3.00;100.00;101015.75;4873345;29;20675;-67
2024/03/05 06:48:47;;;;;;;4.88;4.45;;;;;;;2.97;100.00;101016.06;4879141;29;20233;-67
2024/03/05 06:51:26;;;;;;;6.45;2.97;;;;;;;3.02;100.00;101013.78;4879429;29;20232;-66
2024/03/05 06:56:43;;;;;;;4.30;3.17;;;;;;;3.12;100.00;101026.25;4869636;29;20212;-68
2024/03/05 06:59:13;;;;;;;5.97;2.40;;;;;;;3.22;100.00;101021.69;4878689;29;20228;-67
2024/03/05 07:01:41;;;;;;;3.10;2.85;;;;;;;3.17;100.00;101026.63;4875903;29;20297;-66
2024/03/05 07:04:11;;;;;;;5.18;4.60;;;;;;;3.26;100.00;101023.03;4873106;29;20757;-66
2024/03/05 07:06:40;;;;;;;2.88;2.63;;;;;;;3.25;100.00;101032.06;4877850;29;20239;-67
2024/03/05 07:09:11;;;;;;;7.05;3.08;;;;;;;3.26;100.00;101021.22;4877266;29;20229;-66
2024/03/05 07:11:42;;;;;;;3.30;2.83;;;;;;;3.25;100.00;101021.34;4874729;29;20227;-67
2024/03/05 07:14:11;;;;;;;4.97;3.53;;;;;;;3.27;100.00;101027.41;4873409;29;20659;-67
2024/03/05 07:16:39;;;;;;;4.18;3.83;;;;;;;3.33;100.00;101019.63;4879239;29;20300;-67
2024/03/05 07:19:08;;;;;;;4.63;4.28;;;;;;;3.43;100.00;101028.44;4879592;29;20255;-66
2024/03/05 07:21:37;;;;;;;10.27;3.25;;;;;;;3.42;100.00;101024.06;4882396;29;20201;-67
2024/03/05 07:24:06;;;;;;;6.82;4.47;;;;;;;3.37;100.00;101020.16;4875756;29;20618;-67
2024/03/05 07:26:36;;;;;;;5.80;4.80;;;;;;;3.49;100.00;101022.44;4873170;29;20217;-65
2024/03/05 07:29:08;;;;;;;7.95;4.60;;;;;;;3.70;100.00;101023.97;4881817;29;20293;-67
2024/03/05 07:31:37;;;;;;;3.65;3.33;;;;;;;3.65;100.00;101026.25;4881472;29;20214;-67
2024/03/05 07:38:41;;;;;;;2.92;1.40;;;;;;;3.79;100.00;101028.38;4872614;29;20271;-67
2024/03/05 07:41:12;;;;;;;3.40;2.95;;;;;;;3.81;100.00;101032.59;4870272;29;20209;-66
2024/03/05 07:43:54;;;;;;;9.05;4.80;;;;;;;4.03;100.00;101025.03;4880190;29;20283;-67
2024/03/05 07:46:25;;;;;;;8.43;4.60;;;;;;;4.09;100.00;101029.78;4874634;29;20217;-66
2024/03/05 07:48:54;;;;;;;8.90;4.63;;;;;;;4.19;100.00;101033.19;4880016;29;20256;-66
2024/03/05 07:51:24;;;;;;;4.20;2.45;;;;;;;4.14;99.50;101035.50;4879920;29;20194;-66
2024/03/05 07:54:00;;;;;;;10.98;3.53;;;;;;;4.08;100.00;101028.94;4884493;29;20197;-66
2024/03/05 07:56:29;;;;;;;6.00;4.88;;;;;;;4.43;99.72;101037.88;4883744;29;20304;-67
2024/03/05 07:58:58;;;;;;;4.28;3.97;;;;;;;4.34;98.40;101039.66;4883324;29;20273;-67
2024/03/05 08:01:29;;;;;;;5.55;4.68;;;;;;;4.35;99.03;101041.34;4879875;29;20200;-69
2024/03/05 08:03:59;;;;;;;5.75;3.50;;;;;;;4.25;98.00;101024.53;4883966;29;20213;-67
2024/03/05 08:06:28;;;;;;;5.32;2.45;;;;;;;4.30;99.16;101032.94;4877119;29;20222;-68
2024/03/05 08:08:58;;;;;;;5.13;3.63;;;;;;;4.51;96.90;101033.38;4879040;29;20215;-66
2024/03/05 08:11:26;;;;;;;5.47;3.45;;;;;;;4.66;95.92;101034.47;4878517;29;20201;-66
2024/03/05 08:13:55;;;;;;;4.47;2.72;;;;;;;4.79;95.28;101034.03;4880364;29;20225;-68
2024/03/05 08:16:25;;;;;;;4.45;2.85;;;;;;;4.85;94.59;101038.72;4880565;29;20190;-66
2024/03/05 08:18:55;;;;;;;5.70;4.55;;;;;;;4.74;94.75;101039.03;4879463;29;20218;-68
2024/03/05 08:21:25;;;;;;;3.38;2.63;;;;;;;4.61;95.58;101035.94;4879182;29;20190;-68
2024/03/05 08:23:54;;;;;;;5.38;3.45;;;;;;;4.60;95.89;101043.13;4876383;29;20205;-66
2024/03/05 08:26:23;;;;;;;3.13;2.65;;;;;;;4.54;96.32;101041.13;4877661;29;20555;-67
2024/03/05 08:28:52;;;;;;;2.95;2.58;;;;;;;4.59;95.93;101049.53;4879089;29;20226;-67
2024/03/05 08:31:21;;;;;;;3.83;3.17;;;;;;;4.65;95.76;101038.13;4871345;29;20560;-67
2024/03/05 08:33:50;;;;;;;4.47;2.35;;;;;;;4.61;96.33;101042.16;4877949;29;20193;-69
2024/03/05 08:36:21;;;;;;;5.70;3.95;;;;;;;4.47;96.58;101049.94;4873003;29;20196;-68
2024/03/05 08:38:51;;;;;;;6.53;3.25;;;;;;;4.54;97.02;101040.28;4873390;29;20227;-67
2024/03/05 08:41:20;;;;;;;5.03;3.95;;;;;;;4.71;96.47;101048.22;4879475;29;20539;-69
2024/03/05 08:43:49;;;;;;;4.68;4.18;;;;;;;4.77;96.36;101047.59;4879824;29;20504;-67
2024/03/05 08:46:18;;;;;;;7.03;3.05;;;;;;;5.00;95.14;101041.63;4872197;29;20233;-66
2024/03/05 08:48:46;;;;;;;9.50;2.53;;;;;;;5.11;94.41;101039.50;4880582;29;20233;-68
2024/03/05 08:51:15;;;;;;;2.55;1.50;;;;;;;5.14;93.48;101038.31;4869578;29;20202;-66
2024/03/05 08:53:45;;;;;;;5.03;4.35;;;;;;;5.23;93.29;101045.38;4876081;29;20219;-65
2024/03/05 08:56:15;;;;;;;5.43;4.28;;;;;;;5.14;93.02;101044.53;4882831;29;20187;-65
2024/03/05 08:58:43;;;;;;;9.13;5.70;;;;;;;5.23;93.04;101050.75;4882793;29;20310;-67
2024/03/05 09:01:12;;;;;;;4.47;4.15;;;;;;;5.38;91.76;101050.97;4879670;29;20194;-67
2024/03/05 09:03:42;;;;;;;5.13;4.18;;;;;;;5.42;91.97;101046.97;4882491;29;20250;-67
2024/03/05 09:06:11;;;;;;;3.88;3.17;;;;;;;5.61;91.11;101039.44;4878271;29;20235;-66
2024/03/05 09:08:41;;;;;;;5.07;4.68;;;;;;;5.46;90.63;101051.84;4874515;29;20241;-67
2024/03/05 09:11:12;;;;;;;7.90;3.40;;;;;;;5.43;91.65;101054.84;4880428;29;20277;-65
2024/03/05 09:13:45;;;;;;;2.53;2.33;;;;;;;5.66;90.32;101065.78;4881924;29;20198;-67
2024/03/05 09:16:14;;;;;;;1.50;1.40;;;;;;;5.38;91.33;101056.31;4880385;29;20666;-68
2024/03/05 09:18:43;;;;;;;4.18;3.20;;;;;;;5.44;92.30;101059.19;4881876;29;20294;-67
2024/03/05 09:21:12;;;;;;;9.30;2.75;;;;;;;5.33;92.24;101059.50;4880757;29;20287;-67
2024/03/05 09:23:41;;;;;;;5.22;3.00;;;;;;;5.41;92.22;101056.84;4881524;29;20221;-68
2024/03/05 09:26:12;;;;;;;3.65;3.35;;;;;;;5.61;91.34;101060.91;4874529;29;20564;-68
2024/03/05 09:28:42;;;;;;;4.32;2.63;;;;;;;5.91;90.18;101062.13;4879502;29;20229;-67
2024/03/05 09:31:11;;;;;;;3.35;2.72;;;;;;;6.13;88.41;101071.38;4876623;29;20211;-67
2024/03/05 09:33:40;;;;;;;3.08;2.35;;;;;;;6.03;88.33;101070.69;4881228;29;20283;-67
2024/03/05 09:36:09;;;;;;;4.45;4.05;;;;;;;6.24;86.98;101076.41;4879687;29;20298;-68
2024/03/05 09:38:38;;;;;;;3.35;3.05;;;;;;;5.99;87.42;101072.03;4881490;29;20210;-67
2024/03/05 09:41:08;;;;;;;7.55;3.67;;;;;;;6.00;87.36;101071.03;4878433;29;20615;-68
2024/03/05 09:43:41;;;;;;;24.52;6.35;;;;;;;5.72;87.69;101072.31;4880687;29;20206;-67
2024/03/05 09:46:10;;;;;;;9.82;2.50;;;;;;;5.90;88.05;101079.28;4878165;29;20194;-67
2024/03/05 09:48:39;;;;;;;5.47;4.63;;;;;;;5.86;87.20;101077.03;4878673;29;20321;-66
2024/03/05 09:51:10;;;;;;;7.05;3.45;;;;;;;6.14;87.04;101078.44;4880722;29;20210;-67
2024/03/05 09:53:39;;;;;;;10.75;3.72;;;;;;;5.98;86.90;101075.72;4878036;29;20263;-67
2024/03/05 09:56:08;;;;;;;3.38;3.08;;;;;;;6.04;86.41;101072.38;4875497;29;20251;-66
2024/03/05 09:58:40;;;;;;;4.35;2.85;;;;;;;5.98;87.49;101064.97;4880701;29;20242;-66
2024/03/05 10:01:10;;;;;;;6.05;3.50;;;;;;;6.10;86.44;101082.44;4877493;29;20630;-68
2024/03/05 10:03:41;;;;;;;3.33;3.03;;;;;;;6.11;86.31;101076.91;4880728;29;20646;-66
2024/03/05 10:06:15;;;;;;;7.20;3.92;;;;;;;5.91;86.54;101069.34;4876033;29;20200;-66
2024/03/05 10:08:43;;;;;;;5.05;3.60;;;;;;;6.06;87.42;101081.09;4873185;29;20226;-67
2024/03/05 10:11:13;;;;;;;2.75;1.73;;;;;;;6.14;86.12;101066.84;4880341;29;20217;-67
2024/03/05 10:13:44;;;;;;;2.45;2.30;;;;;;;6.17;86.17;101080.75;4880270;29;20315;-67
2024/03/05 10:16:23;;;;;;;6.97;3.70;;;;;;;6.17;85.70;101082.59;4880195;29;20202;-68
2024/03/05 10:18:52;;;;;;;17.27;3.78;;;;;;;5.88;85.98;101080.44;4876873;29;20256;-69
2024/03/05 10:21:23;;;;;;;5.25;3.10;;;;;;;5.92;85.38;101081.78;4870764;29;20191;-67
2024/03/05 10:23:59;;;;;;;5.70;2.70;;;;;;;5.93;84.93;101072.72;4875600;29;20194;-67
2024/03/05 10:26:31;;;;;;;5.75;4.60;;;;;;;6.08;84.44;101071.88;4879586;29;20201;-67
2024/03/05 10:29:07;;;;;;;6.45;3.85;;;;;;;6.49;82.05;101058.34;4880031;29;20310;-67
2024/03/05 10:31:39;;;;;;;4.30;3.00;;;;;;;6.80;80.84;101069.22;4879266;29;20210;-67
2024/03/05 10:34:08;;;;;;;2.45;2.15;;;;;;;6.67;80.11;101066.22;4873947;29;20289;-68
2024/03/05 10:36:40;;;;;;;6.22;5.15;;;;;;;6.93;78.40;101082.94;4880018;29;20187;-67
2024/03/05 10:39:11;;;;;;;3.20;2.35;;;;;;;6.68;78.71;101076.78;4879862;29;20298;-68
2024/03/05 10:41:41;;;;;;;3.03;2.40;;;;;;;6.84;78.41;101084.81;4875305;29;20271;-65
2024/03/05 10:44:21;;;;;;;3.28;2.25;;;;;;;6.67;78.67;101077.81;4878646;29;20262;-67
2024/03/05 10:46:54;;;;;;;3.25;3.05;;;;;;;6.41;79.24;101075.34;4879433;29;20278;-67
2024/03/05 10:49:23;;;;;;;10.52;2.58;;;;;;;6.35;79.76;101073.34;4872716;29;20219;-68
2024/03/05 10:51:53;;;;;;;3.45;1.60;;;;;;;6.66;77.50;101073.47;4879149;29;20220;-68
2024/03/05 10:54:23;;;;;;;1.58;1.20;;;;;;;6.46;77.80;101074.84;4879664;29;20285;-69
2024/03/05 10:56:53;;;;;;;4.22;2.60;;;;;;;6.54;76.54;101067.59;4872570;29;20574;-66
2024/03/05 10:59:30;;;;;;;2.92;2.03;;;;;;;6.82;75.72;101075.25;4879340;29;20225;-67
2024/03/05 11:02:00;;;;;;;4.82;3.47;;;;;;;6.88;74.18;101077.25;4878404;29;20554;-68
2024/03/05 11:04:33;;;;;;;3.75;2.20;;;;;;;7.15;72.06;101082.19;4874858;29;20199;-67
2024/03/05 11:07:06;;;;;;;7.07;2.50;;;;;;;7.14;71.57;101072.44;4876507;29;20186;-68
2024/03/05 11:09:37;;;;;;;8.65;2.70;;;;;;;7.39;70.53;101071.28;4876210;29;20211;-68
2024/03/05 11:12:10;;;;;;;4.35;2.70;;;;;;;7.43;70.07;101075.31;4877271;29;20576;-70
2024/03/05 11:14:41;;;;;;;2.72;2.03;;;;;;;7.72;69.53;101077.31;4879309;29;20195;-69
2024/03/05 11:17:11;;;;;;;2.10;1.70;;;;;;;7.66;68.24;101077.16;4879160;29;20218;-69
2024/03/05 11:19:44;;;;;;;12.48;2.55;;;;;;;7.46;68.58;101084.03;4881264;29;20222;-68
2024/03/05 11:22:26;;;;;;;3.35;2.78;;;;;;;7.54;67.90;101090.22;4879515;29;20270;-69
2024/03/05 11:24:59;;;;;;;2.58;1.92;;;;;;;6.89;68.25;101076.22;4879893;29;20250;-67
2024/03/05 11:27:30;;;;;;;3.30;1.70;;;;;;;7.14;67.62;101083.19;4879232;29;20206;-68
2024/03/05 11:30:19;;;;;;;4.82;1.80;;;;;;;7.18;65.82;101081.81;4879729;29;20219;-68
2024/03/05 11:32:50;;;;;;;3.97;2.15;;;;;;;7.48;64.68;101088.22;4879173;29;20213;-67
2024/03/05 11:35:20;;;;;;;2.67;1.95;;;;;;;7.93;62.33;101087.44;4880280;29;20282;-68
2024/03/05 11:37:51;;;;;;;8.77;2.80;;;;;;;7.65;60.80;101072.81;4875743;29;20224;-70
2024/03/05 11:40:29;;;;;;;2.40;2.13;;;;;;;7.99;60.54;101081.28;4874013;29;20705;-66
2024/03/05 11:42:58;;;;;;;1.20;1.10;;;;;;;7.73;61.80;101078.16;4867794;29;20191;-69
2024/03/05 11:45:48;;;;;;;1.70;1.60;;;;;;;8.02;59.27;101086.34;4875489;29;20251;-68
2024/03/05 11:48:19;;;;;;;2.45;1.63;;;;;;;8.17;55.37;101072.91;4877011;29;20218;-68
2024/03/05 11:50:48;;;;;;;3.50;1.85;;;;;;;8.43;55.43;101083.28;4874938;29;20199;-68